sensor_id;sensor_type;location;lat;lon;timestamp;temperature;humidity
42877;DHT22;42341;40.498;72.818;2023-02-15T00:01:44;4.20;94.70
42877;DHT22;42341;40.498;72.818;2023-02-15T00:04:14;4.30;94.70
42877;DHT22;42341;40.498;72.818;2023-02-15T00:06:40;4.20;94.90
42877;DHT22;42341;40.498;72.818;2023-02-15T00:09:06;4.20;95.30
42877;DHT22;42341;40.498;72.818;2023-02-15T00:11:33;4.10;95.40
42877;DHT22;42341;40.498;72.818;2023-02-15T00:14:24;4.20;96.20
42877;DHT22;42341;40.498;72.818;2023-02-15T00:16:51;4.20;96.00
42877;DHT22;42341;40.498;72.818;2023-02-15T00:19:19;4.10;96.50
42877;DHT22;42341;40.498;72.818;2023-02-15T00:21:46;4.10;96.90
42877;DHT22;42341;40.498;72.818;2023-02-15T00:24:14;4.10;97.30
42877;DHT22;42341;40.498;72.818;2023-02-15T00:26:42;4.10;97.40
42877;DHT22;42341;40.498;72.818;2023-02-15T00:29:09;4.00;97.80
42877;DHT22;42341;40.498;72.818;2023-02-15T00:31:36;4.00;98.00
42877;DHT22;42341;40.498;72.818;2023-02-15T00:34:10;4.10;98.30
42877;DHT22;42341;40.498;72.818;2023-02-15T00:36:36;4.10;98.30
42877;DHT22;42341;40.498;72.818;2023-02-15T00:39:02;4.10;98.30
42877;DHT22;42341;40.498;72.818;2023-02-15T00:41:31;4.10;98.40
42877;DHT22;42341;40.498;72.818;2023-02-15T00:43:57;4.10;98.60
42877;DHT22;42341;40.498;72.818;2023-02-15T00:46:23;4.10;98.90
42877;DHT22;42341;40.498;72.818;2023-02-15T00:48:49;4.10;99.20
42877;DHT22;42341;40.498;72.818;2023-02-15T00:51:15;4.20;99.20
42877;DHT22;42341;40.498;72.818;2023-02-15T00:53:43;4.20;99.50
42877;DHT22;42341;40.498;72.818;2023-02-15T00:56:10;4.10;99.60
42877;DHT22;42341;40.498;72.818;2023-02-15T00:58:37;4.10;99.90
42877;DHT22;42341;40.498;72.818;2023-02-15T01:01:14;4.00;99.90
42877;DHT22;42341;40.498;72.818;2023-02-15T01:03:41;4.00;99.90
42877;DHT22;42341;40.498;72.818;2023-02-15T01:06:07;4.10;99.90
42877;DHT22;42341;40.498;72.818;2023-02-15T01:08:34;4.00;99.90
42877;DHT22;42341;40.498;72.818;2023-02-15T01:11:20;4.00;99.90
42877;DHT22;42341;40.498;72.818;2023-02-15T01:13:57;4.10;99.90
42877;DHT22;42341;40.498;72.818;2023-02-15T01:16:25;4.10;99.90
42877;DHT22;42341;40.498;72.818;2023-02-15T01:18:51;4.20;99.90
42877;DHT22;42341;40.498;72.818;2023-02-15T01:21:20;4.30;99.90
42877;DHT22;42341;40.498;72.818;2023-02-15T01:23:46;4.20;99.90
42877;DHT22;42341;40.498;72.818;2023-02-15T01:26:14;4.30;99.90
42877;DHT22;42341;40.498;72.818;2023-02-15T01:28:40;4.30;99.90
42877;DHT22;42341;40.498;72.818;2023-02-15T01:31:08;4.20;99.90
42877;DHT22;42341;40.498;72.818;2023-02-15T01:33:35;4.20;99.90
42877;DHT22;42341;40.498;72.818;2023-02-15T01:36:02;4.20;99.90
42877;DHT22;42341;40.498;72.818;2023-02-15T01:38:28;4.10;99.90
42877;DHT22;42341;40.498;72.818;2023-02-15T01:40:54;4.20;99.90
42877;DHT22;42341;40.498;72.818;2023-02-15T01:43:47;4.20;99.90
42877;DHT22;42341;40.498;72.818;2023-02-15T01:46:14;4.30;99.90
42877;DHT22;42341;40.498;72.818;2023-02-15T01:48:46;4.30;99.90
42877;DHT22;42341;40.498;72.818;2023-02-15T01:51:15;4.30;99.90
42877;DHT22;42341;40.498;72.818;2023-02-15T01:53:50;4.20;99.90
42877;DHT22;42341;40.498;72.818;2023-02-15T01:56:27;4.20;99.90
42877;DHT22;42341;40.498;72.818;2023-02-15T01:58:56;4.10;99.90
42877;DHT22;42341;40.498;72.818;2023-02-15T02:04:51;3.80;99.90
42877;DHT22;42341;40.498;72.818;2023-02-15T02:07:20;3.80;99.90
42877;DHT22;42341;40.498;72.818;2023-02-15T02:09:47;3.80;99.90
42877;DHT22;42341;40.498;72.818;2023-02-15T02:12:15;3.60;99.90
42877;DHT22;42341;40.498;72.818;2023-02-15T02:14:42;3.60;99.90
42877;DHT22;42341;40.498;72.818;2023-02-15T02:17:34;3.60;99.90
42877;DHT22;42341;40.498;72.818;2023-02-15T02:36:49;3.60;99.90
42877;DHT22;42341;40.498;72.818;2023-02-15T02:39:30;3.60;99.90
42877;DHT22;42341;40.498;72.818;2023-02-15T02:44:44;3.70;99.90
42877;DHT22;42341;40.498;72.818;2023-02-15T02:49:43;3.70;99.90
42877;DHT22;42341;40.498;72.818;2023-02-15T02:52:50;3.70;99.90
42877;DHT22;42341;40.498;72.818;2023-02-15T02:55:45;3.70;99.90
42877;DHT22;42341;40.498;72.818;2023-02-15T02:58:16;3.60;99.90
42877;DHT22;42341;40.498;72.818;2023-02-15T03:04:07;3.70;99.90
42877;DHT22;42341;40.498;72.818;2023-02-15T03:06:53;3.70;99.90
42877;DHT22;42341;40.498;72.818;2023-02-15T03:09:25;3.70;99.90
42877;DHT22;42341;40.498;72.818;2023-02-15T03:12:00;3.80;99.90
42877;DHT22;42341;40.498;72.818;2023-02-15T03:14:27;3.70;99.90
42877;DHT22;42341;40.498;72.818;2023-02-15T03:16:54;3.80;99.90
42877;DHT22;42341;40.498;72.818;2023-02-15T03:19:32;3.80;99.90
42877;DHT22;42341;40.498;72.818;2023-02-15T03:22:04;3.90;99.90
42877;DHT22;42341;40.498;72.818;2023-02-15T03:24:44;3.90;99.90
42877;DHT22;42341;40.498;72.818;2023-02-15T03:27:18;3.90;99.90
42877;DHT22;42341;40.498;72.818;2023-02-15T03:29:46;3.90;99.90
42877;DHT22;42341;40.498;72.818;2023-02-15T03:32:15;3.80;99.90
42877;DHT22;42341;40.498;72.818;2023-02-15T03:34:42;3.90;99.90
42877;DHT22;42341;40.498;72.818;2023-02-15T03:37:40;4.00;99.90
42877;DHT22;42341;40.498;72.818;2023-02-15T03:45:49;4.10;99.90
42877;DHT22;42341;40.498;72.818;2023-02-15T03:48:50;4.20;99.90
42877;DHT22;42341;40.498;72.818;2023-02-15T03:51:20;4.30;99.90
42877;DHT22;42341;40.498;72.818;2023-02-15T03:54:08;4.20;99.90
42877;DHT22;42341;40.498;72.818;2023-02-15T03:56:38;4.20;99.90
42877;DHT22;42341;40.498;72.818;2023-02-15T03:59:04;4.30;99.90
42877;DHT22;42341;40.498;72.818;2023-02-15T04:02:22;4.50;99.90
42877;DHT22;42341;40.498;72.818;2023-02-15T04:04:49;4.60;99.90
42877;DHT22;42341;40.498;72.818;2023-02-15T04:07:15;4.60;99.90
42877;DHT22;42341;40.498;72.818;2023-02-15T04:09:41;4.70;99.90
42877;DHT22;42341;40.498;72.818;2023-02-15T04:12:25;4.70;99.90
42877;DHT22;42341;40.498;72.818;2023-02-15T04:14:51;4.70;99.90
42877;DHT22;42341;40.498;72.818;2023-02-15T04:17:37;4.70;99.90
42877;DHT22;42341;40.498;72.818;2023-02-15T04:20:03;4.80;99.90
42877;DHT22;42341;40.498;72.818;2023-02-15T04:22:47;4.70;99.90
42877;DHT22;42341;40.498;72.818;2023-02-15T04:25:32;4.80;99.90
42877;DHT22;42341;40.498;72.818;2023-02-15T04:27:57;4.90;99.90
42877;DHT22;42341;40.498;72.818;2023-02-15T04:30:25;4.90;99.90
42877;DHT22;42341;40.498;72.818;2023-02-15T04:32:51;4.90;99.90
42877;DHT22;42341;40.498;72.818;2023-02-15T04:35:17;5.00;99.90
42877;DHT22;42341;40.498;72.818;2023-02-15T04:37:44;5.00;99.90
42877;DHT22;42341;40.498;72.818;2023-02-15T04:40:13;5.10;99.90
42877;DHT22;42341;40.498;72.818;2023-02-15T04:42:39;5.00;99.90
42877;DHT22;42341;40.498;72.818;2023-02-15T04:45:05;5.20;99.90
42877;DHT22;42341;40.498;72.818;2023-02-15T04:47:31;5.30;99.90
42877;DHT22;42341;40.498;72.818;2023-02-15T04:49:57;5.40;99.80
42877;DHT22;42341;40.498;72.818;2023-02-15T04:52:23;5.40;99.70
42877;DHT22;42341;40.498;72.818;2023-02-15T04:54:49;5.50;99.60
42877;DHT22;42341;40.498;72.818;2023-02-15T04:57:15;5.60;99.20
42877;DHT22;42341;40.498;72.818;2023-02-15T04:59:41;5.70;98.90
42877;DHT22;42341;40.498;72.818;2023-02-15T05:02:07;5.80;98.30
42877;DHT22;42341;40.498;72.818;2023-02-15T05:04:34;5.70;97.90
42877;DHT22;42341;40.498;72.818;2023-02-15T05:07:00;5.90;97.50
42877;DHT22;42341;40.498;72.818;2023-02-15T05:09:26;5.80;97.40
42877;DHT22;42341;40.498;72.818;2023-02-15T05:11:52;5.70;97.50
42877;DHT22;42341;40.498;72.818;2023-02-15T05:14:18;5.80;97.10
42877;DHT22;42341;40.498;72.818;2023-02-15T05:16:44;5.70;97.20
42877;DHT22;42341;40.498;72.818;2023-02-15T05:19:11;5.90;96.60
42877;DHT22;42341;40.498;72.818;2023-02-15T05:21:45;6.00;96.10
42877;DHT22;42341;40.498;72.818;2023-02-15T05:24:11;6.00;96.80
42877;DHT22;42341;40.498;72.818;2023-02-15T05:26:55;6.00;95.90
42877;DHT22;42341;40.498;72.818;2023-02-15T05:29:39;6.30;95.80
42877;DHT22;42341;40.498;72.818;2023-02-15T05:32:05;6.50;95.40
42877;DHT22;42341;40.498;72.818;2023-02-15T05:34:32;6.50;95.40
42877;DHT22;42341;40.498;72.818;2023-02-15T05:36:58;6.50;95.40
42877;DHT22;42341;40.498;72.818;2023-02-15T05:39:24;6.40;95.20
42877;DHT22;42341;40.498;72.818;2023-02-15T05:41:50;6.40;95.50
42877;DHT22;42341;40.498;72.818;2023-02-15T05:44:16;6.50;95.30
42877;DHT22;42341;40.498;72.818;2023-02-15T05:46:42;6.50;95.20
42877;DHT22;42341;40.498;72.818;2023-02-15T05:49:07;6.50;94.40
42877;DHT22;42341;40.498;72.818;2023-02-15T05:51:33;6.50;94.40
42877;DHT22;42341;40.498;72.818;2023-02-15T05:53:59;6.60;94.30
42877;DHT22;42341;40.498;72.818;2023-02-15T05:56:25;6.50;94.30
42877;DHT22;42341;40.498;72.818;2023-02-15T05:58:53;6.50;94.40
42877;DHT22;42341;40.498;72.818;2023-02-15T06:01:21;6.40;94.50
42877;DHT22;42341;40.498;72.818;2023-02-15T06:03:49;6.40;94.50
42877;DHT22;42341;40.498;72.818;2023-02-15T06:06:15;6.30;94.20
42877;DHT22;42341;40.498;72.818;2023-02-15T06:08:41;6.30;94.50
42877;DHT22;42341;40.498;72.818;2023-02-15T06:11:07;6.40;94.80
42877;DHT22;42341;40.498;72.818;2023-02-15T06:13:33;6.50;94.40
42877;DHT22;42341;40.498;72.818;2023-02-15T06:16:00;6.50;94.90
42877;DHT22;42341;40.498;72.818;2023-02-15T06:18:26;6.50;94.60
42877;DHT22;42341;40.498;72.818;2023-02-15T06:20:52;6.40;94.30
42877;DHT22;42341;40.498;72.818;2023-02-15T06:23:18;6.40;94.20
42877;DHT22;42341;40.498;72.818;2023-02-15T06:25:45;6.40;94.40
42877;DHT22;42341;40.498;72.818;2023-02-15T06:28:12;6.30;94.40
42877;DHT22;42341;40.498;72.818;2023-02-15T06:30:38;6.20;94.40
42877;DHT22;42341;40.498;72.818;2023-02-15T06:33:04;6.30;94.30
42877;DHT22;42341;40.498;72.818;2023-02-15T06:35:29;6.30;94.60
42877;DHT22;42341;40.498;72.818;2023-02-15T06:37:56;6.20;94.60
42877;DHT22;42341;40.498;72.818;2023-02-15T06:40:21;6.30;94.60
42877;DHT22;42341;40.498;72.818;2023-02-15T06:42:47;6.30;94.50
42877;DHT22;42341;40.498;72.818;2023-02-15T06:45:14;6.40;94.10
42877;DHT22;42341;40.498;72.818;2023-02-15T06:47:40;6.50;94.10
42877;DHT22;42341;40.498;72.818;2023-02-15T06:50:06;6.30;94.50
42877;DHT22;42341;40.498;72.818;2023-02-15T06:52:33;6.40;95.30
42877;DHT22;42341;40.498;72.818;2023-02-15T06:54:59;6.30;95.50
42877;DHT22;42341;40.498;72.818;2023-02-15T06:57:25;6.40;95.60
42877;DHT22;42341;40.498;72.818;2023-02-15T06:59:50;6.60;95.70
42877;DHT22;42341;40.498;72.818;2023-02-15T07:02:18;6.70;95.20
42877;DHT22;42341;40.498;72.818;2023-02-15T07:04:44;6.70;94.80
42877;DHT22;42341;40.498;72.818;2023-02-15T07:07:11;6.70;94.70
42877;DHT22;42341;40.498;72.818;2023-02-15T07:09:37;6.60;94.90
42877;DHT22;42341;40.498;72.818;2023-02-15T07:12:04;6.60;94.80
42877;DHT22;42341;40.498;72.818;2023-02-15T07:14:49;6.60;95.00
42877;DHT22;42341;40.498;72.818;2023-02-15T07:17:17;6.60;94.70
42877;DHT22;42341;40.498;72.818;2023-02-15T07:19:43;6.80;94.50
42877;DHT22;42341;40.498;72.818;2023-02-15T07:22:09;6.90;94.20
42877;DHT22;42341;40.498;72.818;2023-02-15T07:24:35;6.90;94.10
42877;DHT22;42341;40.498;72.818;2023-02-15T07:27:02;6.80;94.40
42877;DHT22;42341;40.498;72.818;2023-02-15T07:29:28;6.70;94.10
42877;DHT22;42341;40.498;72.818;2023-02-15T07:31:54;6.70;94.60
42877;DHT22;42341;40.498;72.818;2023-02-15T07:34:20;6.70;94.80
42877;DHT22;42341;40.498;72.818;2023-02-15T07:36:46;6.70;94.80
42877;DHT22;42341;40.498;72.818;2023-02-15T07:39:12;6.80;95.00
42877;DHT22;42341;40.498;72.818;2023-02-15T07:41:38;6.80;94.80
42877;DHT22;42341;40.498;72.818;2023-02-15T07:44:04;6.80;94.90
42877;DHT22;42341;40.498;72.818;2023-02-15T07:46:30;6.70;94.30
42877;DHT22;42341;40.498;72.818;2023-02-15T07:48:56;6.70;94.20
42877;DHT22;42341;40.498;72.818;2023-02-15T07:51:22;6.70;94.40
42877;DHT22;42341;40.498;72.818;2023-02-15T07:53:48;6.70;94.50
42877;DHT22;42341;40.498;72.818;2023-02-15T07:56:14;6.80;94.00
42877;DHT22;42341;40.498;72.818;2023-02-15T07:58:41;6.80;94.40
42877;DHT22;42341;40.498;72.818;2023-02-15T08:01:22;6.70;95.10
42877;DHT22;42341;40.498;72.818;2023-02-15T08:03:49;6.60;95.40
42877;DHT22;42341;40.498;72.818;2023-02-15T08:06:15;6.60;95.10
42877;DHT22;42341;40.498;72.818;2023-02-15T08:08:41;6.40;95.70
42877;DHT22;42341;40.498;72.818;2023-02-15T08:11:16;6.50;95.40
42877;DHT22;42341;40.498;72.818;2023-02-15T08:14:12;6.40;96.00
42877;DHT22;42341;40.498;72.818;2023-02-15T08:16:52;6.40;96.10
42877;DHT22;42341;40.498;72.818;2023-02-15T08:19:29;6.50;96.10
42877;DHT22;42341;40.498;72.818;2023-02-15T08:22:10;6.50;96.00
42877;DHT22;42341;40.498;72.818;2023-02-15T08:24:37;6.40;96.00
42877;DHT22;42341;40.498;72.818;2023-02-15T08:27:04;6.40;96.20
42877;DHT22;42341;40.498;72.818;2023-02-15T08:29:31;6.30;96.30
42877;DHT22;42341;40.498;72.818;2023-02-15T08:32:06;6.20;96.20
42877;DHT22;42341;40.498;72.818;2023-02-15T08:34:39;6.20;96.30
42877;DHT22;42341;40.498;72.818;2023-02-15T08:37:06;6.20;96.20
42877;DHT22;42341;40.498;72.818;2023-02-15T08:39:32;6.30;96.30
42877;DHT22;42341;40.498;72.818;2023-02-15T08:41:58;6.20;96.60
42877;DHT22;42341;40.498;72.818;2023-02-15T08:44:24;6.20;96.50
42877;DHT22;42341;40.498;72.818;2023-02-15T08:46:50;6.20;96.60
42877;DHT22;42341;40.498;72.818;2023-02-15T08:49:21;6.20;96.90
42877;DHT22;42341;40.498;72.818;2023-02-15T08:51:47;6.20;97.00
42877;DHT22;42341;40.498;72.818;2023-02-15T08:54:15;6.20;97.20
42877;DHT22;42341;40.498;72.818;2023-02-15T08:56:43;6.20;97.50
42877;DHT22;42341;40.498;72.818;2023-02-15T08:59:15;6.20;97.70
42877;DHT22;42341;40.498;72.818;2023-02-15T09:01:42;6.30;97.80
42877;DHT22;42341;40.498;72.818;2023-02-15T09:04:08;6.20;98.10
42877;DHT22;42341;40.498;72.818;2023-02-15T09:06:36;6.00;98.20
42877;DHT22;42341;40.498;72.818;2023-02-15T09:09:02;5.80;99.30
42877;DHT22;42341;40.498;72.818;2023-02-15T09:11:32;5.70;99.40
42877;DHT22;42341;40.498;72.818;2023-02-15T09:14:02;5.70;99.90
42877;DHT22;42341;40.498;72.818;2023-02-15T09:16:30;5.70;99.90
42877;DHT22;42341;40.498;72.818;2023-02-15T09:18:58;5.70;99.90
42877;DHT22;42341;40.498;72.818;2023-02-15T09:21:25;5.70;99.90
42877;DHT22;42341;40.498;72.818;2023-02-15T09:23:55;5.70;99.90
42877;DHT22;42341;40.498;72.818;2023-02-15T09:26:22;5.80;99.90
42877;DHT22;42341;40.498;72.818;2023-02-15T09:28:56;5.80;99.90
42877;DHT22;42341;40.498;72.818;2023-02-15T09:31:24;5.60;99.90
42877;DHT22;42341;40.498;72.818;2023-02-15T09:33:51;5.60;99.90
42877;DHT22;42341;40.498;72.818;2023-02-15T09:38:52;5.70;99.90
42877;DHT22;42341;40.498;72.818;2023-02-15T09:52:25;5.70;99.90
42877;DHT22;42341;40.498;72.818;2023-02-15T09:58:14;6.00;99.90
42877;DHT22;42341;40.498;72.818;2023-02-15T10:03:42;6.10;99.90
42877;DHT22;42341;40.498;72.818;2023-02-15T10:06:35;6.00;99.90
42877;DHT22;42341;40.498;72.818;2023-02-15T10:09:13;5.80;99.90
42877;DHT22;42341;40.498;72.818;2023-02-15T10:15:03;5.70;99.90
42877;DHT22;42341;40.498;72.818;2023-02-15T10:26:22;5.60;99.90
42877;DHT22;42341;40.498;72.818;2023-02-15T10:29:00;5.60;99.90
42877;DHT22;42341;40.498;72.818;2023-02-15T10:34:20;5.50;99.90
42877;DHT22;42341;40.498;72.818;2023-02-15T10:42:37;5.50;99.90
42877;DHT22;42341;40.498;72.818;2023-02-15T10:47:52;5.50;99.90
42877;DHT22;42341;40.498;72.818;2023-02-15T10:56:14;5.20;99.90
42877;DHT22;42341;40.498;72.818;2023-02-15T11:02:25;5.20;99.90
42877;DHT22;42341;40.498;72.818;2023-02-15T11:07:43;5.20;99.90
42877;DHT22;42341;40.498;72.818;2023-02-15T11:10:18;5.20;99.90
42877;DHT22;42341;40.498;72.818;2023-02-15T11:12:48;5.10;99.90
42877;DHT22;42341;40.498;72.818;2023-02-15T11:15:43;4.90;99.90
42877;DHT22;42341;40.498;72.818;2023-02-15T11:23:46;4.90;99.90
42877;DHT22;42341;40.498;72.818;2023-02-15T11:26:27;5.00;99.90
42877;DHT22;42341;40.498;72.818;2023-02-15T11:29:05;5.00;99.90
42877;DHT22;42341;40.498;72.818;2023-02-15T11:31:49;5.00;99.90
42877;DHT22;42341;40.498;72.818;2023-02-15T11:34:23;5.00;99.90
42877;DHT22;42341;40.498;72.818;2023-02-15T11:36:53;4.90;99.90
42877;DHT22;42341;40.498;72.818;2023-02-15T11:39:21;4.90;99.90
42877;DHT22;42341;40.498;72.818;2023-02-15T11:41:55;4.90;99.90
42877;DHT22;42341;40.498;72.818;2023-02-15T11:44:34;4.90;99.90
42877;DHT22;42341;40.498;72.818;2023-02-15T11:47:01;4.90;99.90
42877;DHT22;42341;40.498;72.818;2023-02-15T11:49:35;4.80;99.90
42877;DHT22;42341;40.498;72.818;2023-02-15T11:52:07;4.70;99.90
42877;DHT22;42341;40.498;72.818;2023-02-15T11:54:41;4.70;99.90
42877;DHT22;42341;40.498;72.818;2023-02-15T11:58:01;4.70;99.90
42877;DHT22;42341;40.498;72.818;2023-02-15T12:00:32;4.80;99.90
42877;DHT22;42341;40.498;72.818;2023-02-15T12:03:07;4.80;99.90
42877;DHT22;42341;40.498;72.818;2023-02-15T12:05:37;4.90;99.90
42877;DHT22;42341;40.498;72.818;2023-02-15T12:08:24;4.90;99.90
42877;DHT22;42341;40.498;72.818;2023-02-15T12:13:23;4.90;99.90
42877;DHT22;42341;40.498;72.818;2023-02-15T12:15:52;4.90;99.90
42877;DHT22;42341;40.498;72.818;2023-02-15T12:18:38;5.00;99.90
42877;DHT22;42341;40.498;72.818;2023-02-15T12:21:24;4.90;99.90
42877;DHT22;42341;40.498;72.818;2023-02-15T12:23:52;4.90;99.90
42877;DHT22;42341;40.498;72.818;2023-02-15T12:26:31;4.80;99.90
42877;DHT22;42341;40.498;72.818;2023-02-15T12:29:06;4.80;99.90
42877;DHT22;42341;40.498;72.818;2023-02-15T12:31:38;4.80;99.90
42877;DHT22;42341;40.498;72.818;2023-02-15T12:36:57;4.80;99.90
42877;DHT22;42341;40.498;72.818;2023-02-15T12:39:28;4.80;99.90
42877;DHT22;42341;40.498;72.818;2023-02-15T12:44:33;4.80;99.90
42877;DHT22;42341;40.498;72.818;2023-02-15T12:49:30;4.80;99.90
42877;DHT22;42341;40.498;72.818;2023-02-15T12:52:01;4.80;99.90
42877;DHT22;42341;40.498;72.818;2023-02-15T12:54:41;4.80;99.90
42877;DHT22;42341;40.498;72.818;2023-02-15T12:57:35;4.80;99.90
42877;DHT22;42341;40.498;72.818;2023-02-15T13:02:48;4.80;99.90
42877;DHT22;42341;40.498;72.818;2023-02-15T13:05:35;4.80;99.90
42877;DHT22;42341;40.498;72.818;2023-02-15T13:08:04;4.80;99.90
42877;DHT22;42341;40.498;72.818;2023-02-15T13:10:39;4.80;99.90
42877;DHT22;42341;40.498;72.818;2023-02-15T13:13:18;4.80;99.90
42877;DHT22;42341;40.498;72.818;2023-02-15T13:15:50;4.80;99.90
42877;DHT22;42341;40.498;72.818;2023-02-15T13:18:38;4.80;99.90
42877;DHT22;42341;40.498;72.818;2023-02-15T13:21:25;4.70;99.90
42877;DHT22;42341;40.498;72.818;2023-02-15T13:23:58;4.70;99.90
42877;DHT22;42341;40.498;72.818;2023-02-15T13:26:27;4.70;99.90
42877;DHT22;42341;40.498;72.818;2023-02-15T13:29:06;4.70;99.90
42877;DHT22;42341;40.498;72.818;2023-02-15T13:31:35;4.70;99.90
42877;DHT22;42341;40.498;72.818;2023-02-15T13:34:25;4.70;99.90
42877;DHT22;42341;40.498;72.818;2023-02-15T13:37:21;4.60;99.90
42877;DHT22;42341;40.498;72.818;2023-02-15T13:42:40;4.70;99.90
42877;DHT22;42341;40.498;72.818;2023-02-15T13:54:06;4.70;99.90
42877;DHT22;42341;40.498;72.818;2023-02-15T14:05:31;4.70;99.90
42877;DHT22;42341;40.498;72.818;2023-02-15T14:08:08;4.60;99.90
42877;DHT22;42341;40.498;72.818;2023-02-15T14:16:03;4.50;99.90
42877;DHT22;42341;40.498;72.818;2023-02-15T14:18:55;4.40;99.90
42877;DHT22;42341;40.498;72.818;2023-02-15T14:21:32;4.40;99.90
42877;DHT22;42341;40.498;72.818;2023-02-15T14:24:19;4.50;99.90
42877;DHT22;42341;40.498;72.818;2023-02-15T14:29:50;4.70;99.90
42877;DHT22;42341;40.498;72.818;2023-02-15T14:32:39;4.70;99.90
42877;DHT22;42341;40.498;72.818;2023-02-15T14:35:16;4.70;99.90
42877;DHT22;42341;40.498;72.818;2023-02-15T14:46:16;5.00;99.90
42877;DHT22;42341;40.498;72.818;2023-02-15T14:48:47;5.00;99.90
42877;DHT22;42341;40.498;72.818;2023-02-15T15:02:50;4.60;99.90
42877;DHT22;42341;40.498;72.818;2023-02-15T15:05:33;4.60;99.90
42877;DHT22;42341;40.498;72.818;2023-02-15T15:08:02;4.70;99.90
42877;DHT22;42341;40.498;72.818;2023-02-15T15:18:51;4.60;99.90
42877;DHT22;42341;40.498;72.818;2023-02-15T15:44:19;4.60;99.90
42877;DHT22;42341;40.498;72.818;2023-02-15T15:49:47;4.70;99.90
42877;DHT22;42341;40.498;72.818;2023-02-15T15:52:19;4.60;99.90
42877;DHT22;42341;40.498;72.818;2023-02-15T15:54:49;4.60;99.90
42877;DHT22;42341;40.498;72.818;2023-02-15T15:59:47;4.60;99.90
42877;DHT22;42341;40.498;72.818;2023-02-15T16:02:14;4.60;99.90
42877;DHT22;42341;40.498;72.818;2023-02-15T16:04:44;4.60;99.90
42877;DHT22;42341;40.498;72.818;2023-02-15T16:07:23;4.60;99.90
42877;DHT22;42341;40.498;72.818;2023-02-15T16:09:58;4.60;99.90
42877;DHT22;42341;40.498;72.818;2023-02-15T16:12:28;4.60;99.90
42877;DHT22;42341;40.498;72.818;2023-02-15T16:14:55;4.60;99.90
42877;DHT22;42341;40.498;72.818;2023-02-15T16:17:28;4.50;99.90
42877;DHT22;42341;40.498;72.818;2023-02-15T16:20:25;4.50;99.90
42877;DHT22;42341;40.498;72.818;2023-02-15T16:25:48;4.50;99.90
42877;DHT22;42341;40.498;72.818;2023-02-15T16:28:17;4.50;99.90
42877;DHT22;42341;40.498;72.818;2023-02-15T16:30:45;4.60;99.90
42877;DHT22;42341;40.498;72.818;2023-02-15T16:33:20;4.60;99.90
42877;DHT22;42341;40.498;72.818;2023-02-15T16:35:57;4.60;99.90
42877;DHT22;42341;40.498;72.818;2023-02-15T16:41:16;4.60;99.90
42877;DHT22;42341;40.498;72.818;2023-02-15T16:43:45;4.70;99.90
42877;DHT22;42341;40.498;72.818;2023-02-15T16:46:25;4.70;99.90
42877;DHT22;42341;40.498;72.818;2023-02-15T16:48:53;4.60;99.90
42877;DHT22;42341;40.498;72.818;2023-02-15T16:51:25;4.60;99.90
42877;DHT22;42341;40.498;72.818;2023-02-15T16:53:53;4.60;99.90
42877;DHT22;42341;40.498;72.818;2023-02-15T16:56:29;4.50;99.90
42877;DHT22;42341;40.498;72.818;2023-02-15T16:58:59;4.60;99.90
42877;DHT22;42341;40.498;72.818;2023-02-15T17:01:28;4.60;99.90
42877;DHT22;42341;40.498;72.818;2023-02-15T17:04:14;4.50;99.90
42877;DHT22;42341;40.498;72.818;2023-02-15T17:07:04;4.50;99.90
42877;DHT22;42341;40.498;72.818;2023-02-15T17:09:31;4.60;99.90
42877;DHT22;42341;40.498;72.818;2023-02-15T17:11:57;4.60;99.90
42877;DHT22;42341;40.498;72.818;2023-02-15T17:14:29;4.50;99.90
42877;DHT22;42341;40.498;72.818;2023-02-15T17:17:07;4.50;99.90
42877;DHT22;42341;40.498;72.818;2023-02-15T17:19:51;4.50;99.90
42877;DHT22;42341;40.498;72.818;2023-02-15T17:22:27;4.50;99.90
42877;DHT22;42341;40.498;72.818;2023-02-15T17:24:59;4.50;99.90
42877;DHT22;42341;40.498;72.818;2023-02-15T17:27:28;4.50;99.90
42877;DHT22;42341;40.498;72.818;2023-02-15T17:30:01;4.50;99.90
42877;DHT22;42341;40.498;72.818;2023-02-15T17:32:30;4.60;99.90
42877;DHT22;42341;40.498;72.818;2023-02-15T17:39:58;4.50;99.90
42877;DHT22;42341;40.498;72.818;2023-02-15T17:42:25;4.50;99.90
42877;DHT22;42341;40.498;72.818;2023-02-15T17:44:51;4.50;99.90
42877;DHT22;42341;40.498;72.818;2023-02-15T17:47:20;4.50;99.90
42877;DHT22;42341;40.498;72.818;2023-02-15T17:49:47;4.50;99.90
42877;DHT22;42341;40.498;72.818;2023-02-15T17:52:15;4.50;99.90
42877;DHT22;42341;40.498;72.818;2023-02-15T17:54:43;4.40;99.90
42877;DHT22;42341;40.498;72.818;2023-02-15T17:57:29;4.50;99.90
42877;DHT22;42341;40.498;72.818;2023-02-15T17:59:55;4.40;99.90
42877;DHT22;42341;40.498;72.818;2023-02-15T18:02:41;4.40;99.90
42877;DHT22;42341;40.498;72.818;2023-02-15T18:05:26;4.40;99.90
42877;DHT22;42341;40.498;72.818;2023-02-15T18:08:15;4.50;99.90
42877;DHT22;42341;40.498;72.818;2023-02-15T18:11:00;4.40;99.90
42877;DHT22;42341;40.498;72.818;2023-02-15T18:13:45;4.40;99.90
42877;DHT22;42341;40.498;72.818;2023-02-15T18:16:22;4.50;99.90
42877;DHT22;42341;40.498;72.818;2023-02-15T18:18:48;4.50;99.90
42877;DHT22;42341;40.498;72.818;2023-02-15T18:21:14;4.40;99.90
42877;DHT22;42341;40.498;72.818;2023-02-15T18:23:41;4.40;99.90
42877;DHT22;42341;40.498;72.818;2023-02-15T18:26:11;4.50;99.90
42877;DHT22;42341;40.498;72.818;2023-02-15T18:28:40;4.40;99.90
42877;DHT22;42341;40.498;72.818;2023-02-15T18:31:06;4.40;99.90
42877;DHT22;42341;40.498;72.818;2023-02-15T18:33:38;4.40;99.90
42877;DHT22;42341;40.498;72.818;2023-02-15T18:36:06;4.30;99.90
42877;DHT22;42341;40.498;72.818;2023-02-15T18:38:33;4.20;99.90
42877;DHT22;42341;40.498;72.818;2023-02-15T18:41:00;4.30;99.90
42877;DHT22;42341;40.498;72.818;2023-02-15T18:43:27;4.30;99.90
42877;DHT22;42341;40.498;72.818;2023-02-15T18:45:53;4.40;99.90
42877;DHT22;42341;40.498;72.818;2023-02-15T18:48:19;4.40;99.90
42877;DHT22;42341;40.498;72.818;2023-02-15T18:50:45;4.50;99.90
42877;DHT22;42341;40.498;72.818;2023-02-15T18:53:20;4.50;99.90
42877;DHT22;42341;40.498;72.818;2023-02-15T18:55:46;4.60;99.90
42877;DHT22;42341;40.498;72.818;2023-02-15T18:58:16;4.60;99.90
42877;DHT22;42341;40.498;72.818;2023-02-15T19:00:42;4.70;99.90
42877;DHT22;42341;40.498;72.818;2023-02-15T19:03:12;4.60;99.90
42877;DHT22;42341;40.498;72.818;2023-02-15T19:05:41;4.60;99.90
42877;DHT22;42341;40.498;72.818;2023-02-15T19:08:18;4.60;99.90
42877;DHT22;42341;40.498;72.818;2023-02-15T19:10:46;4.70;99.90
42877;DHT22;42341;40.498;72.818;2023-02-15T19:13:13;4.70;99.90
42877;DHT22;42341;40.498;72.818;2023-02-15T19:15:39;4.70;99.90
42877;DHT22;42341;40.498;72.818;2023-02-15T19:18:05;4.70;99.90
42877;DHT22;42341;40.498;72.818;2023-02-15T19:20:39;4.70;99.90
42877;DHT22;42341;40.498;72.818;2023-02-15T19:23:13;4.60;99.90